Time;durP1;ratioP1;P1;durP2;ratioP2;P2;SDS_P1;SDS_P2;PMS_P1;PMS_P2;Temp;Humidity;BMP_temperature;BMP_pressure;BME280_temperature;BME280_humidity;BME280_pressure;Samples;Min_cycle;Max_cycle;Signal;HPM_P1;HPM_P2
2022/10/30 00:01:18;;;;;;;12.43;9.30;;;;;;;;;;5014924;28;20258;-81
2022/10/30 00:03:43;;;;;;;14.05;9.07;;;;;;;;;;5024066;28;20247;-80
2022/10/30 00:06:09;;;;;;;9.82;8.93;;;;;;;;;;5034993;28;20288;-84
2022/10/30 00:08:39;;;;;;;10.20;9.15;;;;;;;;;;5014172;23;20601;-77
2022/10/30 00:11:07;;;;;;;11.18;8.70;;;;;;;;;;5007746;28;20230;-78
2022/10/30 00:13:37;;;;;;;9.18;8.25;;;;;;;;;;4992702;28;20607;-78
2022/10/30 00:16:05;;;;;;;13.53;8.43;;;;;;;;;;4991210;28;20316;-77
2022/10/30 00:18:30;;;;;;;10.43;9.40;;;;;;;;;;4984893;28;20826;-78
2022/10/30 00:20:58;;;;;;;11.53;9.10;;;;;;;;;;4992747;28;20401;-77
2022/10/30 00:23:24;;;;;;;10.07;9.07;;;;;;;;;;5015494;28;20221;-78
2022/10/30 00:25:51;;;;;;;9.27;8.45;;;;;;;;;;4977277;28;20223;-78
2022/10/30 00:28:17;;;;;;;11.87;8.63;;;;;;;;;;4970158;28;20981;-77
2022/10/30 00:30:50;;;;;;;10.37;8.73;;;;;;;;;;5008644;28;20227;-77
2022/10/30 00:33:15;;;;;;;11.50;9.23;;;;;;;;;;5004337;28;20600;-78
2022/10/30 00:35:47;;;;;;;10.77;9.23;;;;;;;;;;4978841;28;20251;-77
2022/10/30 00:38:16;;;;;;;11.80;9.67;;;;;;;;;;4985137;28;20693;-78
2022/10/30 00:40:48;;;;;;;13.80;9.20;;;;;;;;;;4956356;28;20275;-77
2022/10/30 00:43:27;;;;;;;12.63;9.02;;;;;;;;;;5015739;28;20328;-78
2022/10/30 00:45:55;;;;;;;10.17;8.57;;;;;;;;;;4975327;28;20223;-78
2022/10/30 00:48:20;;;;;;;10.83;8.47;;;;;;;;;;4978132;28;20258;-77
2022/10/30 00:50:46;;;;;;;12.10;8.70;;;;;;;;;;4975846;28;20619;-77
2022/10/30 00:53:16;;;;;;;9.52;8.63;;;;;;;;;;4978292;28;20757;-78
2022/10/30 00:55:52;;;;;;;10.47;8.87;;;;;;;;;;5003356;28;20767;-77
2022/10/30 00:58:20;;;;;;;10.07;8.50;;;;;;;;;;4988326;28;20223;-78
2022/10/30 01:00:48;;;;;;;10.02;8.48;;;;;;;;;;4988939;28;20228;-77
2022/10/30 01:03:18;;;;;;;11.47;8.17;;;;;;;;;;4987641;28;20221;-77
2022/10/30 01:05:47;;;;;;;11.93;9.10;;;;;;;;;;4993098;28;20220;-78
2022/10/30 01:08:13;;;;;;;9.27;8.30;;;;;;;;;;4989774;28;20247;-77
2022/10/30 01:10:38;;;;;;;9.55;7.85;;;;;;;;;;4965241;28;20725;-76
2022/10/30 01:13:04;;;;;;;8.90;7.75;;;;;;;;;;4955984;28;20228;-78
2022/10/30 01:15:36;;;;;;;9.65;7.63;;;;;;;;;;4963152;28;20786;-78
2022/10/30 01:18:28;;;;;;;10.53;8.30;;;;;;;;;;4960849;28;20220;-77
2022/10/30 01:20:54;;;;;;;8.48;7.70;;;;;;;;;;5003853;28;20236;-77
2022/10/30 01:23:19;;;;;;;13.10;8.02;;;;;;;;;;5018708;28;20232;-77
2022/10/30 01:26:00;;;;;;;9.13;8.20;;;;;;;;;;4993866;28;20216;-77
2022/10/30 01:28:26;;;;;;;8.85;7.82;;;;;;;;;;5003007;28;20231;-77
2022/10/30 01:31:04;;;;;;;14.30;7.97;;;;;;;;;;4990147;28;20236;-78
2022/10/30 01:33:43;;;;;;;9.40;7.28;;;;;;;;;;5018949;28;20602;-78
2022/10/30 01:36:17;;;;;;;11.00;8.20;;;;;;;;;;4993382;28;20232;-77
2022/10/30 01:39:04;;;;;;;10.83;7.53;;;;;;;;;;5001078;28;20231;-77
2022/10/30 01:41:32;;;;;;;10.40;8.20;;;;;;;;;;4985030;28;20228;-77
2022/10/30 01:44:09;;;;;;;9.00;7.33;;;;;;;;;;4991365;28;20239;-77
2022/10/30 01:46:35;;;;;;;8.73;7.77;;;;;;;;;;4967797;28;20220;-78
2022/10/30 01:49:10;;;;;;;8.50;7.63;;;;;;;;;;4983131;28;20757;-77
2022/10/30 01:51:39;;;;;;;8.20;7.45;;;;;;;;;;5014808;28;20228;-77
2022/10/30 01:54:27;;;;;;;10.20;7.87;;;;;;;;;;4991966;28;20650;-77
2022/10/30 01:57:21;;;;;;;11.43;7.53;;;;;;;;;;4985763;28;20240;-78
2022/10/30 02:00:08;;;;;;;8.63;7.67;;;;;;;;;;4968512;28;20224;-77
2022/10/30 02:02:40;;;;;;;9.03;7.43;;;;;;;;;;4984935;28;20255;-77
2022/10/30 02:05:12;;;;;;;11.35;7.57;;;;;;;;;;4978899;28;20725;-78
2022/10/30 02:07:38;;;;;;;9.85;7.97;;;;;;;;;;4977930;28;20290;-78
2022/10/30 02:10:06;;;;;;;13.07;8.10;;;;;;;;;;4961742;28;20211;-77
2022/10/30 02:12:31;;;;;;;9.07;8.10;;;;;;;;;;4972830;28;20228;-77
2022/10/30 02:14:58;;;;;;;9.10;8.10;;;;;;;;;;4975443;28;20259;-77
2022/10/30 02:17:26;;;;;;;9.30;8.13;;;;;;;;;;5007040;28;20232;-77
2022/10/30 02:19:51;;;;;;;11.80;8.00;;;;;;;;;;4961179;28;20220;-78
2022/10/30 02:22:21;;;;;;;9.03;8.10;;;;;;;;;;4991234;28;20228;-77
2022/10/30 02:24:48;;;;;;;10.53;7.57;;;;;;;;;;4985612;28;20238;-78
2022/10/30 02:27:15;;;;;;;9.77;7.70;;;;;;;;;;4986490;28;20224;-78
2022/10/30 02:29:42;;;;;;;9.50;7.93;;;;;;;;;;4988442;28;20737;-77
2022/10/30 02:32:08;;;;;;;9.80;7.77;;;;;;;;;;4977214;28;20227;-77
2022/10/30 02:34:36;;;;;;;8.47;7.57;;;;;;;;;;4993590;28;20228;-76
2022/10/30 02:37:02;;;;;;;9.93;7.43;;;;;;;;;;5009770;28;20613;-76
2022/10/30 02:39:27;;;;;;;9.80;7.37;;;;;;;;;;4988655;28;20698;-76
2022/10/30 02:41:54;;;;;;;8.43;7.22;;;;;;;;;;4987399;28;20314;-76
2022/10/30 02:44:23;;;;;;;9.17;7.57;;;;;;;;;;4998284;28;20235;-76
2022/10/30 02:46:53;;;;;;;8.63;7.70;;;;;;;;;;5001941;28;20601;-75
2022/10/30 02:49:20;;;;;;;9.90;7.97;;;;;;;;;;4969017;28;20729;-76
2022/10/30 02:51:48;;;;;;;9.47;7.33;;;;;;;;;;4986908;28;20228;-76
2022/10/30 02:54:14;;;;;;;9.50;7.75;;;;;;;;;;4979025;28;20220;-77
2022/10/30 02:56:40;;;;;;;8.23;7.33;;;;;;;;;;5006774;28;20228;-76
2022/10/30 02:59:05;;;;;;;7.90;6.70;;;;;;;;;;4984238;28;20284;-76
2022/10/30 03:01:31;;;;;;;10.93;7.10;;;;;;;;;;4983564;28;20249;-77
2022/10/30 03:03:58;;;;;;;11.23;7.05;;;;;;;;;;4976526;28;20334;-76
2022/10/30 03:06:29;;;;;;;8.33;7.13;;;;;;;;;;5002139;28;20628;-76
2022/10/30 03:08:56;;;;;;;10.50;7.13;;;;;;;;;;4978902;28;20232;-77
2022/10/30 03:11:22;;;;;;;9.07;7.67;;;;;;;;;;4995978;28;20223;-76
2022/10/30 03:13:47;;;;;;;11.67;7.43;;;;;;;;;;4996899;28;21024;-77
2022/10/30 03:16:25;;;;;;;10.83;7.07;;;;;;;;;;4996626;28;20576;-76
2022/10/30 03:18:53;;;;;;;9.83;6.80;;;;;;;;;;4979629;28;20246;-76
2022/10/30 03:21:20;;;;;;;10.10;7.33;;;;;;;;;;4994695;28;20223;-76
2022/10/30 03:23:46;;;;;;;9.60;7.67;;;;;;;;;;4964526;28;20252;-78
2022/10/30 03:26:11;;;;;;;9.77;7.50;;;;;;;;;;4998213;28;20227;-77
2022/10/30 03:29:12;;;;;;;10.03;7.30;;;;;;;;;;5004494;28;20220;-76
2022/10/30 03:31:40;;;;;;;9.03;6.73;;;;;;;;;;4979311;28;20288;-76
2022/10/30 03:34:10;;;;;;;9.10;7.23;;;;;;;;;;4991371;28;20765;-75
2022/10/30 03:36:38;;;;;;;7.97;7.20;;;;;;;;;;4979583;28;20224;-77
2022/10/30 03:39:09;;;;;;;10.43;7.70;;;;;;;;;;4996282;28;20226;-76
2022/10/30 03:41:35;;;;;;;7.43;6.73;;;;;;;;;;4983357;28;20219;-76
2022/10/30 03:44:01;;;;;;;10.40;7.47;;;;;;;;;;4980893;28;20228;-78
2022/10/30 03:46:30;;;;;;;10.80;8.40;;;;;;;;;;4983487;28;20228;-78
2022/10/30 03:49:11;;;;;;;8.87;7.70;;;;;;;;;;4996707;28;20232;-78
2022/10/30 03:51:37;;;;;;;8.40;7.50;;;;;;;;;;4980919;28;20232;-78
2022/10/30 03:54:02;;;;;;;11.70;7.93;;;;;;;;;;4996531;28;20238;-78
2022/10/30 03:56:29;;;;;;;10.83;8.23;;;;;;;;;;4999551;28;20733;-78
2022/10/30 03:58:57;;;;;;;10.17;8.10;;;;;;;;;;4989753;28;20216;-76
2022/10/30 04:01:24;;;;;;;8.47;7.57;;;;;;;;;;4994210;28;20229;-76
2022/10/30 04:03:57;;;;;;;8.73;7.90;;;;;;;;;;4992593;28;20219;-76
2022/10/30 04:06:24;;;;;;;9.37;8.07;;;;;;;;;;4968280;28;20224;-76
2022/10/30 04:08:50;;;;;;;10.00;7.93;;;;;;;;;;4961295;28;20891;-76
2022/10/30 04:11:18;;;;;;;7.73;6.83;;;;;;;;;;4988496;28;20571;-76
2022/10/30 04:13:48;;;;;;;6.97;5.80;;;;;;;;;;4964890;28;20220;-76
2022/10/30 04:16:18;;;;;;;6.47;5.33;;;;;;;;;;5021126;28;20222;-76
2022/10/30 04:18:46;;;;;;;6.10;5.50;;;;;;;;;;4986469;28;20316;-76
2022/10/30 04:21:14;;;;;;;9.97;5.90;;;;;;;;;;4960866;28;20270;-76
2022/10/30 04:23:39;;;;;;;6.97;5.53;;;;;;;;;;4972205;28;20249;-76
2022/10/30 04:26:07;;;;;;;6.70;5.90;;;;;;;;;;4995843;28;20300;-77
2022/10/30 04:28:36;;;;;;;7.10;5.73;;;;;;;;;;4996120;28;20232;-77
2022/10/30 04:31:03;;;;;;;6.57;5.50;;;;;;;;;;4997408;28;20257;-77
2022/10/30 04:33:34;;;;;;;5.90;5.33;;;;;;;;;;4986708;28;20220;-76
2022/10/30 04:36:00;;;;;;;7.50;5.87;;;;;;;;;;4962094;28;20220;-76
2022/10/30 04:38:28;;;;;;;6.30;4.97;;;;;;;;;;5009526;28;20304;-76
2022/10/30 04:40:57;;;;;;;5.97;5.47;;;;;;;;;;4992576;28;21017;-76
2022/10/30 04:43:37;;;;;;;8.50;5.47;;;;;;;;;;4975909;28;20219;-76
2022/10/30 04:46:04;;;;;;;7.17;5.40;;;;;;;;;;4981598;28;20232;-76
2022/10/30 04:48:33;;;;;;;6.27;5.60;;;;;;;;;;4979383;28;20324;-75
2022/10/30 04:51:01;;;;;;;6.43;5.50;;;;;;;;;;4977494;28;20742;-76
2022/10/30 04:53:27;;;;;;;6.27;5.63;;;;;;;;;;4968779;28;20232;-76
2022/10/30 04:56:03;;;;;;;7.47;5.30;;;;;;;;;;4988001;28;20243;-76
2022/10/30 04:58:35;;;;;;;4.60;3.93;;;;;;;;;;4984706;28;20216;-77
2022/10/30 05:01:06;;;;;;;5.40;4.90;;;;;;;;;;4963538;28;20562;-76
2022/10/30 05:03:32;;;;;;;7.50;5.00;;;;;;;;;;4976606;28;20225;-76
2022/10/30 05:06:03;;;;;;;6.97;5.23;;;;;;;;;;4982496;28;20244;-76
2022/10/30 05:08:31;;;;;;;5.67;4.30;;;;;;;;;;5014641;28;20232;-76
2022/10/30 05:11:02;;;;;;;9.20;4.77;;;;;;;;;;4975698;28;20303;-76
2022/10/30 05:13:28;;;;;;;5.77;4.50;;;;;;;;;;4966025;28;20267;-76
2022/10/30 05:15:54;;;;;;;5.70;4.70;;;;;;;;;;4993081;28;20227;-77
2022/10/30 05:18:20;;;;;;;7.00;4.57;;;;;;;;;;4962746;28;20216;-76
2022/10/30 05:20:48;;;;;;;5.23;4.50;;;;;;;;;;4991947;28;20751;-76
2022/10/30 05:23:17;;;;;;;7.60;4.87;;;;;;;;;;4990888;28;20215;-76
2022/10/30 05:25:42;;;;;;;5.37;4.87;;;;;;;;;;4991682;28;20621;-77
2022/10/30 05:28:13;;;;;;;6.33;4.97;;;;;;;;;;4973043;28;20244;-76
2022/10/30 05:30:53;;;;;;;5.53;4.70;;;;;;;;;;4978335;28;20231;-76
2022/10/30 05:33:38;;;;;;;5.43;5.03;;;;;;;;;;4998624;28;20217;-76
2022/10/30 05:36:09;;;;;;;5.43;4.93;;;;;;;;;;4971618;28;20224;-76
2022/10/30 05:38:35;;;;;;;6.63;5.73;;;;;;;;;;4989836;28;20605;-76
2022/10/30 05:41:01;;;;;;;7.80;5.43;;;;;;;;;;4973206;28;20308;-78
2022/10/30 05:43:28;;;;;;;9.70;5.37;;;;;;;;;;4990622;28;20227;-76
2022/10/30 05:45:58;;;;;;;6.07;5.47;;;;;;;;;;4958042;28;20299;-76
2022/10/30 05:48:24;;;;;;;8.17;5.53;;;;;;;;;;4991659;28;20264;-76
2022/10/30 05:50:50;;;;;;;6.47;5.80;;;;;;;;;;4994572;28;20212;-77
2022/10/30 05:53:28;;;;;;;6.47;5.80;;;;;;;;;;4991781;28;20223;-76
2022/10/30 05:55:58;;;;;;;6.23;5.63;;;;;;;;;;4952821;28;20235;-76
2022/10/30 05:58:33;;;;;;;7.73;5.13;;;;;;;;;;5006881;28;20250;-76
2022/10/30 06:01:05;;;;;;;7.80;6.10;;;;;;;;;;5007173;28;20228;-76
2022/10/30 06:03:38;;;;;;;8.53;5.53;;;;;;;;;;4976692;28;20231;-76
2022/10/30 06:06:08;;;;;;;7.80;5.63;;;;;;;;;;4972077;28;20679;-76
2022/10/30 06:08:37;;;;;;;7.00;5.30;;;;;;;;;;4982314;28;20249;-76
2022/10/30 06:11:22;;;;;;;6.83;5.33;;;;;;;;;;4992095;28;20303;-76
2022/10/30 06:13:53;;;;;;;5.70;5.20;;;;;;;;;;5003882;28;20836;-76
2022/10/30 06:16:27;;;;;;;5.40;4.93;;;;;;;;;;4992651;28;20221;-76
2022/10/30 06:19:12;;;;;;;9.23;5.53;;;;;;;;;;4980104;28;20240;-76
2022/10/30 06:21:38;;;;;;;4.03;3.50;;;;;;;;;;5002076;28;20266;-76
2022/10/30 06:24:12;;;;;;;3.53;3.23;;;;;;;;;;4987513;28;20804;-76
2022/10/30 06:26:42;;;;;;;5.40;3.47;;;;;;;;;;4978612;28;20658;-76
2022/10/30 06:29:12;;;;;;;3.93;3.27;;;;;;;;;;4984617;28;20255;-76
2022/10/30 06:31:37;;;;;;;3.30;3.10;;;;;;;;;;4972648;28;20228;-76
2022/10/30 06:34:06;;;;;;;3.30;3.00;;;;;;;;;;4974578;28;20221;-76
2022/10/30 06:36:34;;;;;;;4.57;3.17;;;;;;;;;;4991175;28;20229;-76
2022/10/30 06:38:59;;;;;;;4.67;3.30;;;;;;;;;;4996888;28;20775;-75
2022/10/30 06:41:33;;;;;;;4.10;3.50;;;;;;;;;;4973704;28;20217;-76
2022/10/30 06:44:19;;;;;;;7.10;3.90;;;;;;;;;;4983128;28;20213;-75
2022/10/30 06:46:47;;;;;;;4.40;3.63;;;;;;;;;;4969796;28;20762;-76
2022/10/30 06:49:13;;;;;;;4.33;4.00;;;;;;;;;;4977808;28;20764;-76
2022/10/30 06:51:38;;;;;;;6.67;4.43;;;;;;;;;;4960825;28;20219;-75
2022/10/30 06:54:04;;;;;;;4.77;4.27;;;;;;;;;;4979554;28;20590;-76
2022/10/30 06:56:38;;;;;;;5.80;4.07;;;;;;;;;;4997331;28;20231;-77
2022/10/30 06:59:07;;;;;;;7.63;4.70;;;;;;;;;;4987994;28;20231;-76
2022/10/30 07:01:38;;;;;;;5.17;4.53;;;;;;;;;;4987258;28;20283;-76
2022/10/30 07:04:13;;;;;;;4.13;3.73;;;;;;;;;;4984208;28;20220;-77
2022/10/30 07:06:39;;;;;;;3.63;3.27;;;;;;;;;;4968294;28;20227;-76
2022/10/30 07:09:04;;;;;;;3.90;3.27;;;;;;;;;;4953209;28;20735;-76
2022/10/30 07:11:32;;;;;;;3.57;3.27;;;;;;;;;;4974407;28;20220;-77
2022/10/30 07:13:57;;;;;;;3.70;3.40;;;;;;;;;;5000506;28;20230;-77
2022/10/30 07:16:45;;;;;;;6.00;3.70;;;;;;;;;;5003994;28;20239;-75
2022/10/30 07:19:14;;;;;;;6.50;4.10;;;;;;;;;;4960660;28;20208;-76
2022/10/30 07:21:41;;;;;;;5.77;4.27;;;;;;;;;;4984931;28;20289;-76
2022/10/30 07:24:09;;;;;;;5.40;3.50;;;;;;;;;;4974074;28;20262;-75
2022/10/30 07:26:54;;;;;;;5.20;4.47;;;;;;;;;;4978684;28;20307;-78
2022/10/30 07:29:37;;;;;;;4.30;3.87;;;;;;;;;;4989433;28;20383;-76
2022/10/30 07:32:30;;;;;;;4.87;3.87;;;;;;;;;;4980207;28;20238;-76
2022/10/30 07:35:28;;;;;;;8.63;4.40;;;;;;;;;;4987021;28;20230;-76
2022/10/30 07:38:16;;;;;;;8.27;4.40;;;;;;;;;;5013692;28;20285;-77
2022/10/30 07:43:12;;;;;;;4.57;4.10;;;;;;;;;;5065330;27;20305;-78
2022/10/30 07:45:40;;;;;;;4.40;4.00;;;;;;;;;;5044797;28;20301;-77
2022/10/30 07:48:35;;;;;;;5.30;4.47;;;;;;;;;;5047540;28;20767;-76
2022/10/30 07:51:14;;;;;;;4.53;4.13;;;;;;;;;;5044610;28;20229;-77
2022/10/30 07:53:40;;;;;;;6.20;4.30;;;;;;;;;;5042307;28;20218;-77
2022/10/30 07:56:07;;;;;;;6.07;4.70;;;;;;;;;;5015050;28;20223;-77
2022/10/30 07:59:13;;;;;;;5.13;4.63;;;;;;;;;;5047060;28;20210;-77
2022/10/30 08:02:02;;;;;;;8.30;5.00;;;;;;;;;;5033044;28;20301;-77
2022/10/30 08:04:38;;;;;;;6.43;4.80;;;;;;;;;;5030708;28;20240;-77
2022/10/30 08:07:19;;;;;;;5.30;4.70;;;;;;;;;;5063892;28;20230;-77
2022/10/30 08:09:46;;;;;;;5.53;5.07;;;;;;;;;;4999960;28;20657;-77
2022/10/30 08:12:11;;;;;;;8.13;6.50;;;;;;;;;;5035708;28;20234;-77
2022/10/30 08:14:37;;;;;;;8.87;7.37;;;;;;;;;;5047393;28;20237;-77
2022/10/30 08:17:04;;;;;;;9.55;7.95;;;;;;;;;;5018308;28;20225;-76
2022/10/30 08:19:32;;;;;;;10.00;9.00;;;;;;;;;;5035763;28;20222;-77
2022/10/30 08:21:58;;;;;;;9.47;8.10;;;;;;;;;;5041587;28;20242;-77
2022/10/30 08:24:24;;;;;;;9.57;8.57;;;;;;;;;;5065861;28;20214;-77
2022/10/30 08:26:51;;;;;;;8.53;7.50;;;;;;;;;;5047974;28;20254;-77
2022/10/30 08:29:17;;;;;;;7.47;6.53;;;;;;;;;;5050413;28;20220;-77
2022/10/30 08:31:43;;;;;;;7.07;6.33;;;;;;;;;;5065804;28;20301;-76
2022/10/30 08:34:17;;;;;;;6.95;6.20;;;;;;;;;;5065375;28;20718;-77
2022/10/30 08:36:50;;;;;;;7.15;6.32;;;;;;;;;;5070520;28;20297;-77
2022/10/30 08:39:18;;;;;;;8.90;5.85;;;;;;;;;;5033775;28;20218;-76
2022/10/30 08:42:06;;;;;;;10.75;5.75;;;;;;;;;;5051982;28;20223;-76
2022/10/30 08:44:37;;;;;;;7.72;5.20;;;;;;;;;;5066794;28;20222;-76
2022/10/30 08:47:21;;;;;;;10.00;5.50;;;;;;;;;;5065458;28;20228;-77
2022/10/30 08:49:47;;;;;;;6.82;4.50;;;;;;;;;;5033077;28;20222;-75
2022/10/30 08:52:16;;;;;;;6.90;5.22;;;;;;;;;;5048167;28;20218;-76
2022/10/30 08:54:46;;;;;;;5.55;4.45;;;;;;;;;;5053091;28;20222;-76
2022/10/30 08:57:12;;;;;;;9.70;4.70;;;;;;;;;;5050986;28;20260;-76
2022/10/30 08:59:40;;;;;;;8.23;4.55;;;;;;;;;;5036911;28;20223;-79
2022/10/30 09:02:12;;;;;;;8.57;4.47;;;;;;;;;;5054021;28;20728;-78
2022/10/30 09:04:56;;;;;;;6.80;4.90;;;;;;;;;;5057732;28;20688;-79
2022/10/30 09:07:55;;;;;;;6.82;4.43;;;;;;;;;;4994959;28;20250;-78
2022/10/30 09:10:57;;;;;;;6.03;4.40;;;;;;;;;;5051657;28;20597;-78
2022/10/30 09:13:24;;;;;;;7.05;4.90;;;;;;;;;;5023112;28;20222;-78
2022/10/30 09:15:50;;;;;;;6.55;4.20;;;;;;;;;;5038886;28;20227;-77
2022/10/30 09:18:16;;;;;;;7.60;4.32;;;;;;;;;;5035441;28;20235;-78
2022/10/30 09:20:42;;;;;;;6.55;4.10;;;;;;;;;;5036875;28;20557;-79
2022/10/30 09:23:07;;;;;;;6.18;4.25;;;;;;;;;;5068693;28;20230;-78
2022/10/30 09:25:33;;;;;;;6.72;4.95;;;;;;;;;;5022190;28;20275;-78
2022/10/30 09:28:26;;;;;;;5.35;4.05;;;;;;;;;;5028229;28;20222;-77
2022/10/30 09:31:30;;;;;;;5.07;4.00;;;;;;;;;;4983530;28;20233;-78
2022/10/30 09:34:00;;;;;;;5.00;3.97;;;;;;;;;;4972786;28;20237;-78
2022/10/30 09:36:46;;;;;;;5.30;4.00;;;;;;;;;;5038509;28;20715;-77
2022/10/30 09:39:14;;;;;;;4.50;4.03;;;;;;;;;;5033808;28;20288;-77
2022/10/30 09:42:24;;;;;;;6.15;4.57;;;;;;;;;;5034063;28;20704;-77
2022/10/30 09:45:18;;;;;;;9.98;4.55;;;;;;;;;;5040460;28;20233;-77
2022/10/30 09:48:15;;;;;;;5.70;4.20;;;;;;;;;;5067559;28;20239;-78
2022/10/30 09:51:08;;;;;;;9.82;4.40;;;;;;;;;;5067435;28;20226;-78
2022/10/30 09:54:35;;;;;;;5.55;4.10;;;;;;;;;;5074654;28;20252;-78
2022/10/30 09:57:09;;;;;;;7.80;4.20;;;;;;;;;;4997053;28;20228;-78
2022/10/30 10:00:00;;;;;;;6.53;4.18;;;;;;;;;;4965788;28;20225;-77
2022/10/30 10:02:52;;;;;;;7.72;4.28;;;;;;;;;;5037362;28;20227;-78
2022/10/30 10:05:25;;;;;;;7.50;4.35;;;;;;;;;;5036741;28;21008;-78
2022/10/30 10:07:53;;;;;;;7.53;3.90;;;;;;;;;;5029551;28;20236;-78
2022/10/30 10:10:38;;;;;;;7.43;4.18;;;;;;;;;;5041124;28;20233;-78
2022/10/30 10:13:28;;;;;;;6.57;4.20;;;;;;;;;;5047095;28;20257;-77
2022/10/30 10:16:18;;;;;;;8.25;4.30;;;;;;;;;;5046466;28;20218;-78
2022/10/30 10:19:09;;;;;;;5.50;4.15;;;;;;;;;;5044379;28;20377;-78
2022/10/30 10:21:37;;;;;;;6.38;4.00;;;;;;;;;;5070113;28;20701;-77
2022/10/30 10:24:03;;;;;;;7.50;4.22;;;;;;;;;;5044975;28;20215;-78
2022/10/30 10:26:46;;;;;;;8.90;4.20;;;;;;;;;;5053503;28;20258;-78
2022/10/30 10:29:39;;;;;;;7.68;4.03;;;;;;;;;;5067638;28;20239;-78
2022/10/30 10:32:07;;;;;;;6.25;4.05;;;;;;;;;;5069634;28;20237;-77
2022/10/30 10:35:04;;;;;;;6.25;4.38;;;;;;;;;;5072806;28;20293;-77
2022/10/30 10:37:42;;;;;;;5.57;4.15;;;;;;;;;;5027773;28;20244;-78
2022/10/30 10:40:35;;;;;;;7.15;4.30;;;;;;;;;;5061939;28;20215;-78
2022/10/30 10:43:10;;;;;;;6.55;4.32;;;;;;;;;;5071140;28;20231;-78
2022/10/30 10:46:06;;;;;;;12.68;4.28;;;;;;;;;;5038710;28;20245;-78
2022/10/30 10:48:59;;;;;;;8.65;4.63;;;;;;;;;;5061395;28;20310;-77
2022/10/30 10:51:35;;;;;;;4.68;3.97;;;;;;;;;;5069189;28;20227;-77
2022/10/30 10:54:11;;;;;;;8.65;3.95;;;;;;;;;;5069898;28;20229;-79
2022/10/30 10:56:42;;;;;;;5.53;3.83;;;;;;;;;;5051623;28;20225;-78
2022/10/30 10:59:18;;;;;;;5.63;3.95;;;;;;;;;;5036241;28;20696;-78
2022/10/30 11:01:57;;;;;;;11.93;4.20;;;;;;;;;;5070338;28;20250;-77
2022/10/30 11:04:29;;;;;;;6.25;3.90;;;;;;;;;;5053865;28;20286;-77
2022/10/30 11:06:58;;;;;;;8.77;4.35;;;;;;;;;;5073283;28;20218;-78
2022/10/30 11:09:23;;;;;;;8.27;4.10;;;;;;;;;;5069315;28;20287;-78
2022/10/30 11:11:52;;;;;;;8.18;4.20;;;;;;;;;;5035355;28;20225;-78
2022/10/30 11:14:25;;;;;;;7.03;4.03;;;;;;;;;;5051396;28;20220;-77
2022/10/30 11:17:23;;;;;;;12.85;4.50;;;;;;;;;;5054530;28;20227;-78
2022/10/30 11:19:51;;;;;;;8.43;4.28;;;;;;;;;;5068837;28;20222;-78
2022/10/30 11:22:30;;;;;;;8.07;3.92;;;;;;;;;;5038471;28;20260;-77
2022/10/30 11:25:16;;;;;;;7.45;4.32;;;;;;;;;;5084800;28;20223;-78
2022/10/30 11:27:41;;;;;;;5.63;3.78;;;;;;;;;;5054907;28;20234;-77
2022/10/30 11:30:16;;;;;;;6.25;4.03;;;;;;;;;;5035731;28;20264;-77
2022/10/30 11:32:41;;;;;;;5.68;3.85;;;;;;;;;;5060751;28;20227;-80
2022/10/30 11:35:07;;;;;;;6.47;4.07;;;;;;;;;;5067533;28;20277;-80
2022/10/30 11:37:39;;;;;;;5.05;3.65;;;;;;;;;;5066920;28;20260;-77
2022/10/30 11:40:10;;;;;;;5.82;3.88;;;;;;;;;;5051318;28;20547;-77
2022/10/30 11:42:44;;;;;;;6.53;3.45;;;;;;;;;;5043651;28;20230;-77
2022/10/30 11:45:22;;;;;;;7.15;3.88;;;;;;;;;;5062145;28;20215;-78
2022/10/30 11:47:47;;;;;;;8.95;4.25;;;;;;;;;;5051548;28;20219;-77
2022/10/30 11:50:22;;;;;;;7.65;3.72;;;;;;;;;;5018021;28;20222;-78
2022/10/30 11:52:54;;;;;;;7.65;3.78;;;;;;;;;;5037406;28;20230;-77
2022/10/30 11:55:27;;;;;;;6.30;3.90;;;;;;;;;;5051483;28;20221;-78
2022/10/30 11:57:58;;;;;;;6.38;4.10;;;;;;;;;;5074265;28;20238;-76
2022/10/30 12:00:28;;;;;;;7.25;4.43;;;;;;;;;;5037607;28;20756;-77
2022/10/30 12:02:55;;;;;;;5.78;3.97;;;;;;;;;;5072428;28;20246;-77
2022/10/30 12:05:32;;;;;;;6.95;3.97;;;;;;;;;;5057058;28;20352;-77
2022/10/30 12:08:08;;;;;;;7.38;3.40;;;;;;;;;;5072916;28;20218;-78
2022/10/30 12:10:43;;;;;;;6.13;3.75;;;;;;;;;;5071397;28;20226;-76
2022/10/30 12:13:16;;;;;;;6.18;4.07;;;;;;;;;;5031676;28;20655;-78
2022/10/30 12:15:41;;;;;;;6.45;4.20;;;;;;;;;;5061556;28;20293;-77
2022/10/30 12:18:14;;;;;;;7.88;3.67;;;;;;;;;;5046645;28;20211;-78
2022/10/30 12:20:49;;;;;;;7.93;3.97;;;;;;;;;;5066736;28;20253;-77
2022/10/30 12:23:19;;;;;;;4.85;3.83;;;;;;;;;;5028806;28;20227;-77
2022/10/30 12:25:46;;;;;;;7.90;3.80;;;;;;;;;;5034173;28;20222;-77
2022/10/30 12:28:39;;;;;;;8.93;4.35;;;;;;;;;;5052111;28;20226;-77
2022/10/30 12:31:19;;;;;;;6.22;3.80;;;;;;;;;;5056086;28;20732;-78
2022/10/30 12:34:06;;;;;;;5.18;3.55;;;;;;;;;;5067729;28;20228;-78
2022/10/30 12:36:36;;;;;;;5.30;3.70;;;;;;;;;;5023381;28;20219;-77
2022/10/30 12:39:04;;;;;;;5.72;3.53;;;;;;;;;;5039649;28;20242;-77
2022/10/30 12:41:48;;;;;;;6.25;4.10;;;;;;;;;;5037107;28;20712;-77
2022/10/30 12:44:40;;;;;;;5.22;3.53;;;;;;;;;;5047963;28;20223;-78
2022/10/30 12:47:32;;;;;;;6.22;3.45;;;;;;;;;;5050728;28;20296;-77
2022/10/30 12:50:14;;;;;;;8.55;3.63;;;;;;;;;;5071750;28;20239;-77
2022/10/30 12:52:46;;;;;;;6.10;3.85;;;;;;;;;;5049729;28;20222;-77
2022/10/30 12:55:27;;;;;;;9.20;3.88;;;;;;;;;;5038678;28;20716;-76
2022/10/30 12:58:06;;;;;;;8.77;3.90;;;;;;;;;;5072594;28;20219;-78
2022/10/30 13:00:37;;;;;;;4.20;3.35;;;;;;;;;;5053519;28;20226;-77
2022/10/30 13:03:05;;;;;;;5.75;3.45;;;;;;;;;;5053261;28;20227;-77
2022/10/30 13:05:38;;;;;;;6.55;3.50;;;;;;;;;;5070870;28;20223;-78
2022/10/30 13:08:24;;;;;;;5.68;3.63;;;;;;;;;;5038838;28;20226;-77
2022/10/30 13:11:04;;;;;;;5.07;3.85;;;;;;;;;;5071733;28;20218;-77
2022/10/30 13:13:38;;;;;;;6.13;3.22;;;;;;;;;;5061734;28;20246;-77
2022/10/30 13:16:07;;;;;;;6.65;3.90;;;;;;;;;;5033819;28;20206;-77
2022/10/30 13:18:33;;;;;;;4.80;3.30;;;;;;;;;;5049506;28;20211;-78
2022/10/30 13:21:07;;;;;;;7.30;3.78;;;;;;;;;;5036585;28;20226;-77
2022/10/30 13:23:54;;;;;;;8.25;3.80;;;;;;;;;;5069653;28;20348;-77
2022/10/30 13:26:31;;;;;;;4.80;3.75;;;;;;;;;;5072965;28;20297;-77
2022/10/30 13:29:20;;;;;;;6.28;3.60;;;;;;;;;;5069973;28;20329;-77
2022/10/30 13:31:53;;;;;;;6.18;3.70;;;;;;;;;;5063621;28;20284;-76
2022/10/30 13:34:49;;;;;;;6.97;3.90;;;;;;;;;;5052704;28;20245;-77
2022/10/30 13:37:40;;;;;;;5.15;3.35;;;;;;;;;;5015619;28;20223;-77
2022/10/30 13:40:33;;;;;;;5.45;3.58;;;;;;;;;;5062275;28;20351;-76
2022/10/30 13:43:26;;;;;;;5.80;3.72;;;;;;;;;;5060914;28;20230;-78
2022/10/30 13:45:58;;;;;;;8.20;3.88;;;;;;;;;;5064713;28;20223;-78
2022/10/30 13:48:29;;;;;;;7.40;3.70;;;;;;;;;;5065048;28;20219;-77
2022/10/30 13:51:13;;;;;;;5.88;3.78;;;;;;;;;;5070846;28;20218;-78
2022/10/30 13:53:39;;;;;;;7.38;3.75;;;;;;;;;;5069402;28;20323;-78
2022/10/30 13:56:05;;;;;;;4.90;3.50;;;;;;;;;;5058459;28;20716;-78
2022/10/30 13:58:58;;;;;;;6.45;3.80;;;;;;;;;;5044138;28;20222;-79
2022/10/30 14:01:42;;;;;;;6.55;3.97;;;;;;;;;;5089657;28;20227;-79
2022/10/30 14:04:29;;;;;;;6.57;3.83;;;;;;;;;;5065798;28;20234;-80
2022/10/30 14:07:22;;;;;;;6.25;3.78;;;;;;;;;;5033089;28;20700;-79
2022/10/30 14:09:58;;;;;;;4.15;3.50;;;;;;;;;;5071863;28;20290;-80
2022/10/30 14:13:04;;;;;;;4.95;3.38;;;;;;;;;;5043715;28;20215;-79
2022/10/30 14:15:33;;;;;;;6.28;3.80;;;;;;;;;;5058531;28;20223;-80
2022/10/30 14:18:10;;;;;;;5.85;3.60;;;;;;;;;;5069719;28;20226;-80
2022/10/30 14:20:37;;;;;;;4.97;3.80;;;;;;;;;;5069646;28;20695;-80
2022/10/30 14:23:07;;;;;;;4.32;3.50;;;;;;;;;;5017850;28;20288;-79
2022/10/30 14:25:32;;;;;;;5.47;3.70;;;;;;;;;;5043432;28;20222;-80
2022/10/30 14:27:58;;;;;;;6.82;3.67;;;;;;;;;;5052483;28;20610;-80
2022/10/30 14:30:27;;;;;;;7.57;3.90;;;;;;;;;;5048065;28;20271;-79
2022/10/30 14:32:52;;;;;;;5.18;3.38;;;;;;;;;;5022853;28;20235;-78
2022/10/30 14:35:32;;;;;;;6.75;3.58;;;;;;;;;;5050303;28;20250;-78
2022/10/30 14:38:09;;;;;;;6.80;3.83;;;;;;;;;;5045620;28;20275;-78
2022/10/30 14:40:34;;;;;;;7.00;4.18;;;;;;;;;;5054471;28;20233;-77
2022/10/30 14:43:25;;;;;;;6.40;3.65;;;;;;;;;;5067707;28;20231;-78
2022/10/30 14:46:00;;;;;;;6.20;4.40;;;;;;;;;;5045075;28;20223;-78
2022/10/30 14:48:46;;;;;;;6.30;4.03;;;;;;;;;;5053359;28;20754;-76
2022/10/30 14:51:13;;;;;;;6.68;4.47;;;;;;;;;;5071530;28;20230;-79
2022/10/30 14:53:45;;;;;;;6.72;4.57;;;;;;;;;;5053417;28;20701;-78
2022/10/30 14:56:16;;;;;;;7.63;4.22;;;;;;;;;;5068611;28;20223;-78
2022/10/30 14:58:45;;;;;;;9.75;4.65;;;;;;;;;;5070092;28;20249;-78
2022/10/30 15:01:45;;;;;;;7.07;4.30;;;;;;;;;;5051838;28;20265;-78
2022/10/30 15:04:32;;;;;;;8.95;4.18;;;;;;;;;;5035085;28;20297;-78
2022/10/30 15:07:20;;;;;;;6.38;4.10;;;;;;;;;;5063470;28;20234;-78
2022/10/30 15:10:21;;;;;;;5.65;4.15;;;;;;;;;;5053102;28;20264;-77
2022/10/30 15:13:10;;;;;;;7.55;4.50;;;;;;;;;;5041594;28;20222;-80
2022/10/30 15:15:35;;;;;;;8.00;4.18;;;;;;;;;;5033072;28;20246;-77
2022/10/30 15:18:17;;;;;;;11.52;4.30;;;;;;;;;;5065187;28;20222;-78
2022/10/30 15:20:43;;;;;;;6.85;4.45;;;;;;;;;;5053159;28;20219;-79
2022/10/30 15:23:16;;;;;;;7.07;4.68;;;;;;;;;;5049055;28;20660;-78